Weather at Montreal / Longueuil (Centre Hospitalier Pierre-Boucher) Heliport

Public forecast

Using degrees Celsius for public forecast. Weather courtesy of forecast.io.

Closest aviation weather report (METAR) to Montreal / Longueuil (Centre Hospitalier Pierre-Boucher) Heliport

Closest report is Montréal / Saint-Hubert Airport, 2.2 nm (4.1 km) SE.

2024/05/30 09:00 (retrieved 28 minutes ago)

CYHU 300900Z AUTO VRB02KT 9SM CLR 08/05 A3000 RMK SLP162

Closest aviation forecast (TAF) to Montreal / Longueuil (Centre Hospitalier Pierre-Boucher) Heliport

Closest forecast is Montréal / Saint-Hubert Airport, 2.2 nm (4.1 km) SE.

2024/05/30 06:42 (retrieved 3 hours ago)

TAF CYHU 300540Z 3006/3106 33007KT P6SM FEW240 FM300900 01008KT P6SM SKC FM301700 33010KT P6SM FEW060 RMK FCST BASED ON AUTO OBS NXT FCST BY 301200Z